createdAt,value
2022-09-07T00:01:12.582Z,102268.80
2022-09-07T00:03:40.767Z,102271.00
2022-09-07T00:06:13.006Z,102267.60
2022-09-07T00:08:43.872Z,102268.80
2022-09-07T00:11:18.475Z,102265.00
2022-09-07T00:13:49.484Z,102268.00
2022-09-07T00:16:30.422Z,102264.80
2022-09-07T00:19:01.783Z,102265.60
2022-09-07T00:21:30.686Z,102264.00
2022-09-07T00:23:59.330Z,102266.60
2022-09-07T00:26:33.963Z,102266.60
2022-09-07T00:29:04.547Z,102264.80
2022-09-07T00:31:34.854Z,102264.20
2022-09-07T00:34:03.334Z,102263.60
2022-09-07T00:36:31.301Z,102261.80
2022-09-07T00:38:59.468Z,102266.00
2022-09-07T00:41:27.613Z,102265.00
2022-09-07T00:44:18.592Z,102262.80
2022-09-07T00:46:47.121Z,102266.60
2022-09-07T00:49:21.770Z,102263.80
2022-09-07T00:51:57.979Z,102263.40
2022-09-07T00:54:43.574Z,102263.20
2022-09-07T00:57:12.934Z,102260.20
2022-09-07T00:59:49.736Z,102260.60
2022-09-07T01:02:19.125Z,102258.00
2022-09-07T01:04:52.065Z,102261.20
2022-09-07T01:07:20.607Z,102260.80
2022-09-07T01:09:50.937Z,102264.80
2022-09-07T01:12:18.716Z,102262.80
2022-09-07T01:14:51.980Z,102261.20
2022-09-07T01:17:42.217Z,102260.60
2022-09-07T01:20:40.655Z,102257.00
2022-09-07T01:23:27.918Z,102260.20
2022-09-07T01:26:21.199Z,102258.80
2022-09-07T01:28:57.642Z,102255.40
2022-09-07T01:31:44.619Z,102250.40
2022-09-07T01:34:25.881Z,102259.00
2022-09-07T01:37:22.278Z,102262.20
2022-09-07T01:40:06.092Z,102264.60
2022-09-07T01:42:49.382Z,102257.40
2022-09-07T01:45:24.370Z,102256.80
2022-09-07T01:48:00.504Z,102256.80
2022-09-07T01:50:54.219Z,102256.00
2022-09-07T01:53:34.090Z,102258.00
2022-09-07T01:56:36.329Z,102248.00
2022-09-07T01:59:28.782Z,102245.80
2022-09-07T02:02:24.270Z,102244.80
2022-09-07T02:05:00.651Z,102245.60
2022-09-07T02:07:40.359Z,102248.20
2022-09-07T02:10:21.156Z,102241.00
2022-09-07T02:13:18.175Z,102242.80
2022-09-07T02:16:00.428Z,102245.40
2022-09-07T02:18:37.684Z,102243.40
2022-09-07T02:21:10.314Z,102238.60
2022-09-07T02:23:57.139Z,102239.20
2022-09-07T02:26:29.455Z,102233.60
2022-09-07T02:28:58.325Z,102235.60
2022-09-07T02:31:26.367Z,102232.40
2022-09-07T02:33:54.399Z,102231.60
2022-09-07T02:36:28.055Z,102228.40
2022-09-07T02:38:56.256Z,102232.60
2022-09-07T02:41:39.098Z,102230.00
2022-09-07T02:44:18.444Z,102227.80
2022-09-07T02:47:12.585Z,102232.20
2022-09-07T02:50:17.470Z,102230.40
2022-09-07T02:53:17.406Z,102228.40
2022-09-07T02:56:12.974Z,102227.60
2022-09-07T02:58:55.832Z,102228.20
2022-09-07T03:01:56.356Z,102222.00
2022-09-07T03:04:46.413Z,102223.40
2022-09-07T03:07:24.189Z,102221.20
2022-09-07T03:09:57.247Z,102213.60
2022-09-07T03:12:25.639Z,102214.20
2022-09-07T03:14:53.329Z,102213.80
2022-09-07T03:17:21.098Z,102211.20
2022-09-07T03:19:48.887Z,102214.40
2022-09-07T03:22:16.606Z,102213.00
2022-09-07T03:24:44.820Z,102210.40
2022-09-07T03:27:12.597Z,102217.40
2022-09-07T03:29:42.169Z,102212.80
2022-09-07T03:32:10.064Z,102211.00
2022-09-07T03:34:37.753Z,102214.80
2022-09-07T03:37:05.588Z,102218.00
2022-09-07T03:39:33.561Z,102216.80
2022-09-07T03:42:01.231Z,102215.80
2022-09-07T03:44:29.088Z,102216.00
2022-09-07T03:46:57.231Z,102215.80
2022-09-07T03:49:24.949Z,102214.40
2022-09-07T03:51:52.690Z,102207.20
2022-09-07T03:54:20.437Z,102214.80
2022-09-07T03:56:48.445Z,102214.80
2022-09-07T03:59:16.180Z,102215.40
2022-09-07T04:01:44.302Z,102216.00
2022-09-07T04:04:13.251Z,102210.00
2022-09-07T04:06:41.102Z,102214.20
2022-09-07T04:09:13.974Z,102210.20
2022-09-07T04:11:42.504Z,102207.60
2022-09-07T04:14:11.560Z,102208.40
2022-09-07T04:16:39.671Z,102207.80
2022-09-07T04:19:07.812Z,102207.60
2022-09-07T04:21:35.829Z,102208.60
2022-09-07T04:24:04.074Z,102206.00
2022-09-07T04:26:35.642Z,102209.20
2022-09-07T04:29:06.221Z,102213.40
2022-09-07T04:31:35.486Z,102214.40
2022-09-07T04:34:05.257Z,102209.20
2022-09-07T04:36:33.797Z,102207.60
2022-09-07T04:39:06.046Z,102211.60
2022-09-07T04:41:35.190Z,102210.60
2022-09-07T04:44:04.817Z,102207.00
2022-09-07T04:46:37.921Z,102205.00
2022-09-07T04:49:09.433Z,102209.20
2022-09-07T04:51:39.564Z,102207.60
2022-09-07T04:54:07.386Z,102206.20
2022-09-07T04:56:35.414Z,102209.60
2022-09-07T04:59:04.152Z,102205.40
2022-09-07T05:01:32.059Z,102203.40
2022-09-07T05:04:02.457Z,102202.00
2022-09-07T05:06:30.813Z,102201.40
2022-09-07T05:09:00.025Z,102209.80
2022-09-07T05:11:29.868Z,102206.80
2022-09-07T05:14:03.627Z,102208.80
2022-09-07T05:16:32.199Z,102213.00
2022-09-07T05:19:03.192Z,102214.40
2022-09-07T05:21:34.394Z,102211.40
2022-09-07T05:24:04.435Z,102209.20
2022-09-07T05:26:36.376Z,102216.60
2022-09-07T05:31:55.208Z,102214.60
2022-09-07T05:34:31.882Z,102216.80
2022-09-07T05:37:01.633Z,102221.00
2022-09-07T05:39:30.731Z,102222.20
2022-09-07T05:41:58.627Z,102224.80
2022-09-07T05:47:10.706Z,102236.40
2022-09-07T05:49:38.638Z,102241.80
2022-09-07T05:52:06.993Z,102241.40
2022-09-07T05:54:34.972Z,102241.20
2022-09-07T05:57:03.763Z,102243.60
2022-09-07T05:59:31.659Z,102243.00
2022-09-07T06:02:00.569Z,102246.80
2022-09-07T06:04:29.234Z,102246.60
2022-09-07T06:07:20.721Z,102245.60
2022-09-07T06:12:33.870Z,102248.20
2022-09-07T06:15:02.138Z,102251.80
2022-09-07T06:17:31.143Z,102246.60
2022-09-07T06:19:59.084Z,102243.20
2022-09-07T06:22:30.726Z,102238.20
2022-09-07T06:24:59.610Z,102234.40
2022-09-07T06:27:28.054Z,102231.80
2022-09-07T06:29:55.980Z,102234.40
2022-09-07T06:35:13.800Z,102232.80
2022-09-07T06:37:42.592Z,102235.20
2022-09-07T06:40:11.899Z,102234.80
2022-09-07T06:42:39.822Z,102227.80
2022-09-07T06:45:10.135Z,102230.40
2022-09-07T06:47:37.933Z,102233.20
2022-09-07T06:50:06.676Z,102223.80
2022-09-07T06:55:28.025Z,102230.00
2022-09-07T06:57:56.318Z,102237.40
2022-09-07T07:00:24.223Z,102235.60
2022-09-07T07:02:52.182Z,102233.40
2022-09-07T07:05:20.013Z,102238.40
2022-09-07T07:07:48.011Z,102234.00
2022-09-07T07:10:17.851Z,102236.80
2022-09-07T07:12:47.566Z,102233.80
2022-09-07T07:15:15.420Z,102227.60
2022-09-07T07:17:43.853Z,102230.20
2022-09-07T07:20:12.142Z,102224.40
2022-09-07T07:22:46.407Z,102223.60
2022-09-07T07:25:15.530Z,102217.60
2022-09-07T07:27:45.932Z,102211.20
2022-09-07T07:30:17.290Z,102215.20
2022-09-07T07:32:46.427Z,102215.80
2022-09-07T07:35:15.077Z,102215.20
2022-09-07T07:37:43.194Z,102213.80
2022-09-07T07:42:46.258Z,102208.80
2022-09-07T07:48:02.899Z,102198.20
2022-09-07T07:50:31.634Z,102195.00
2022-09-07T07:55:48.783Z,102192.80
2022-09-07T07:58:16.958Z,102192.00
2022-09-07T08:00:54.257Z,102187.40
2022-09-07T08:03:25.478Z,102188.60
2022-09-07T08:05:54.825Z,102186.40
2022-09-07T08:08:24.108Z,102184.80
2022-09-07T08:10:52.500Z,102188.20
2022-09-07T08:13:21.387Z,102185.60
2022-09-07T08:15:50.686Z,102179.40
2022-09-07T08:18:18.904Z,102181.60
2022-09-07T08:20:46.617Z,102179.20
2022-09-07T08:23:15.430Z,102171.40
2022-09-07T08:25:55.194Z,102172.20
2022-09-07T08:28:23.666Z,102176.40
2022-09-07T08:30:52.213Z,102171.60
2022-09-07T08:33:20.684Z,102178.00
2022-09-07T08:36:01.114Z,102177.20
2022-09-07T08:38:31.794Z,102180.40
2022-09-07T08:41:01.422Z,102178.60
2022-09-07T08:43:49.090Z,102179.00
2022-09-07T08:46:45.768Z,102180.40
2022-09-07T08:49:22.069Z,102182.80
2022-09-07T08:52:00.223Z,102184.00
2022-09-07T08:54:29.372Z,102184.20
2022-09-07T09:00:11.834Z,102182.40
2022-09-07T09:02:43.772Z,102183.40
2022-09-07T09:05:31.786Z,102186.80
2022-09-07T09:08:27.267Z,102187.80
2022-09-07T09:11:35.138Z,102192.40
2022-09-07T09:14:24.445Z,102196.60
2022-09-07T09:17:07.678Z,102193.60
2022-09-07T09:20:00.276Z,102194.60
2022-09-07T09:22:29.169Z,102194.00
2022-09-07T09:25:30.340Z,102191.80
2022-09-07T09:27:58.035Z,102193.20
2022-09-07T09:30:27.300Z,102190.00
2022-09-07T09:33:22.040Z,102187.40
2022-09-07T09:35:54.371Z,102190.60
2022-09-07T09:38:40.867Z,102192.20
2022-09-07T09:41:15.273Z,102198.00
2022-09-07T09:43:55.103Z,102195.00
2022-09-07T09:46:37.050Z,102193.80
2022-09-07T09:49:26.342Z,102198.20
2022-09-07T09:54:52.631Z,102196.00
2022-09-07T10:06:23.145Z,102194.40
2022-09-07T10:09:02.503Z,102194.40
2022-09-07T10:12:09.064Z,102196.00
2022-09-07T10:14:44.582Z,102194.80
2022-09-07T10:17:31.456Z,102195.80
2022-09-07T10:20:21.894Z,102196.80
2022-09-07T10:22:52.599Z,102198.40
2022-09-07T10:25:31.621Z,102197.40
2022-09-07T10:28:09.370Z,102197.80
2022-09-07T10:30:46.147Z,102197.20
2022-09-07T10:33:28.870Z,102196.00
2022-09-07T10:36:08.846Z,102195.00
2022-09-07T10:38:53.985Z,102195.20
2022-09-07T10:41:51.313Z,102190.20
2022-09-07T10:44:57.113Z,102188.60
2022-09-07T10:48:10.323Z,102192.80
2022-09-07T10:51:16.302Z,102194.00
2022-09-07T10:57:37.286Z,102196.40
2022-09-07T11:00:17.540Z,102198.00
2022-09-07T11:03:37.354Z,102199.20
2022-09-07T11:06:22.326Z,102199.40
2022-09-07T11:09:21.964Z,102197.60
2022-09-07T11:12:09.658Z,102209.80
2022-09-07T11:14:48.137Z,102203.20
2022-09-07T11:17:30.090Z,102208.80
2022-09-07T11:20:13.858Z,102210.60
2022-09-07T11:23:19.822Z,102213.00
2022-09-07T11:26:03.506Z,102209.60
2022-09-07T11:28:45.348Z,102206.40
2022-09-07T11:31:43.596Z,102205.60
2022-09-07T11:34:33.176Z,102195.60
2022-09-07T11:37:12.130Z,102199.80
2022-09-07T11:40:21.649Z,102200.00
2022-09-07T11:42:59.709Z,102194.40
2022-09-07T11:45:40.203Z,102194.20
2022-09-07T11:48:22.297Z,102195.60
2022-09-07T11:51:01.684Z,102202.00
2022-09-07T11:53:36.622Z,102195.20
2022-09-07T11:56:22.179Z,102192.80
2022-09-07T11:59:11.450Z,102190.20
2022-09-07T12:02:11.065Z,102189.40
2022-09-07T12:05:16.222Z,102196.00
2022-09-07T12:08:25.032Z,102194.20
2022-09-07T12:11:08.393Z,102198.20
2022-09-07T12:13:45.120Z,102195.40
2022-09-07T12:16:40.169Z,102196.60
2022-09-07T12:19:21.748Z,102197.00
2022-09-07T12:21:52.570Z,102193.00
2022-09-07T12:24:51.468Z,102191.60
2022-09-07T12:27:22.265Z,102189.80
2022-09-07T12:30:13.570Z,102198.20
2022-09-07T12:32:55.296Z,102197.00
2022-09-07T12:35:26.666Z,102201.20
2022-09-07T12:37:56.575Z,102195.80
2022-09-07T12:40:36.263Z,102199.00
2022-09-07T12:43:13.060Z,102194.40
2022-09-07T12:45:41.652Z,102194.60
2022-09-07T12:48:46.858Z,102195.20
2022-09-07T12:54:38.003Z,102192.20
2022-09-07T12:57:38.048Z,102187.60
2022-09-07T13:00:23.737Z,102189.80
2022-09-07T13:09:40.092Z,102190.40
2022-09-07T13:12:57.203Z,102193.20
2022-09-07T13:15:49.011Z,102191.00
2022-09-07T13:18:25.987Z,102186.40
2022-09-07T13:21:09.046Z,102185.20
2022-09-07T13:23:43.113Z,102179.20
2022-09-07T13:26:57.518Z,102180.60
2022-09-07T13:29:38.535Z,102179.80
2022-09-07T13:35:25.329Z,102172.80
2022-09-07T13:37:59.769Z,102168.80
2022-09-07T13:40:32.450Z,102170.80
2022-09-07T13:43:04.266Z,102167.40
2022-09-07T13:46:04.538Z,102169.60
2022-09-07T13:48:54.052Z,102164.80
2022-09-07T13:51:47.271Z,102159.60
2022-09-07T13:54:58.706Z,102158.00
2022-09-07T13:57:39.645Z,102162.80
2022-09-07T14:00:15.177Z,102164.20
2022-09-07T14:02:43.561Z,102159.60
2022-09-07T14:05:18.689Z,102163.20
2022-09-07T14:07:48.724Z,102166.20
2022-09-07T14:10:23.910Z,102167.20
2022-09-07T14:12:54.447Z,102162.40
2022-09-07T14:15:50.756Z,102156.20
2022-09-07T14:18:29.872Z,102154.80
2022-09-07T14:20:58.843Z,102158.60
2022-09-07T14:23:35.007Z,102157.80
2022-09-07T14:26:19.283Z,102156.40
2022-09-07T14:28:54.230Z,102153.20
2022-09-07T14:31:25.097Z,102146.00
2022-09-07T14:33:59.517Z,102144.20
2022-09-07T14:36:45.645Z,102142.80
2022-09-07T14:39:17.728Z,102141.60
2022-09-07T14:41:47.220Z,102138.00
2022-09-07T14:44:43.024Z,102139.80
2022-09-07T14:47:34.009Z,102135.60
2022-09-07T14:50:06.290Z,102140.00
2022-09-07T14:53:33.373Z,102141.20
2022-09-07T14:55:40.338Z,102148.00
2022-09-07T14:58:13.159Z,102149.40
2022-09-07T15:03:42.459Z,102140.40
2022-09-07T15:07:00.921Z,102144.40
2022-09-07T15:08:59.785Z,102140.00
2022-09-07T15:11:33.383Z,102137.80
2022-09-07T15:14:08.739Z,102139.40
2022-09-07T15:19:50.456Z,102137.00
2022-09-07T15:22:19.309Z,102133.20
2022-09-07T15:24:48.867Z,102128.00
2022-09-07T15:27:27.203Z,102129.40
2022-09-07T15:29:55.772Z,102128.00
2022-09-07T15:32:24.354Z,102129.20
2022-09-07T15:34:53.426Z,102129.60
2022-09-07T15:40:26.400Z,102125.60
2022-09-07T15:43:00.597Z,102120.00
2022-09-07T15:45:28.655Z,102119.60
2022-09-07T15:47:57.014Z,102115.80
2022-09-07T15:50:25.125Z,102111.00
2022-09-07T15:52:52.922Z,102112.40
2022-09-07T15:55:22.230Z,102112.00
2022-09-07T15:57:56.868Z,102110.20
2022-09-07T16:00:27.959Z,102108.40
2022-09-07T16:03:11.379Z,102109.60
2022-09-07T16:05:44.893Z,102105.20
2022-09-07T16:08:32.762Z,102107.60
2022-09-07T16:11:18.520Z,102104.20
2022-09-07T16:13:48.345Z,102106.40
2022-09-07T16:16:16.422Z,102105.00
2022-09-07T16:18:46.700Z,102100.00
2022-09-07T16:21:16.760Z,102104.60
2022-09-07T16:23:48.869Z,102101.40
2022-09-07T16:26:21.247Z,102099.60
2022-09-07T16:28:51.889Z,102103.80
2022-09-07T16:31:28.094Z,102104.00
2022-09-07T16:33:55.941Z,102105.60
2022-09-07T16:36:24.169Z,102104.00
2022-09-07T16:38:59.269Z,102103.20
2022-09-07T16:41:33.113Z,102100.60
2022-09-07T16:44:00.817Z,102094.20
2022-09-07T16:46:35.332Z,102102.80
2022-09-07T16:49:04.162Z,102099.20
2022-09-07T16:51:31.819Z,102100.00
2022-09-07T16:54:00.330Z,102099.40
2022-09-07T16:56:33.658Z,102098.80
2022-09-07T16:59:08.645Z,102084.80
2022-09-07T17:01:38.062Z,102090.20
2022-09-07T17:04:11.233Z,102088.60
2022-09-07T17:06:40.735Z,102087.20
2022-09-07T17:09:09.011Z,102080.20
2022-09-07T17:11:37.717Z,102074.40
2022-09-07T17:14:06.701Z,102078.80
2022-09-07T17:16:38.907Z,102083.80
2022-09-07T17:22:00.358Z,102083.20
2022-09-07T17:24:29.627Z,102083.60
2022-09-07T17:27:00.588Z,102088.80
2022-09-07T17:29:30.639Z,102090.80
2022-09-07T17:34:47.870Z,102095.00
2022-09-07T17:37:15.902Z,102099.20
2022-09-07T17:39:44.380Z,102100.80
2022-09-07T17:42:12.769Z,102101.60
2022-09-07T17:44:40.502Z,102111.40
2022-09-07T17:47:08.325Z,102118.20
2022-09-07T17:49:36.318Z,102123.60
2022-09-07T17:52:04.341Z,102120.20
2022-09-07T17:54:32.963Z,102119.60
2022-09-07T17:57:00.716Z,102125.20
2022-09-07T18:02:16.415Z,102135.80
2022-09-07T18:04:44.136Z,102137.00
2022-09-07T18:07:12.176Z,102136.40
2022-09-07T18:09:40.460Z,102141.40
2022-09-07T18:12:08.549Z,102142.80
2022-09-07T18:14:36.298Z,102145.60
2022-09-07T18:17:05.592Z,102147.80
2022-09-07T18:19:33.539Z,102148.20
2022-09-07T18:22:03.873Z,102149.80
2022-09-07T18:24:32.146Z,102148.20
2022-09-07T18:26:59.991Z,102148.20
2022-09-07T18:29:31.085Z,102150.80
2022-09-07T18:32:05.715Z,102151.00
2022-09-07T18:34:37.105Z,102155.60
2022-09-07T18:37:06.669Z,102156.60
2022-09-07T18:39:35.791Z,102158.80
2022-09-07T18:42:04.322Z,102151.40
2022-09-07T18:47:27.895Z,102155.40
2022-09-07T18:49:57.337Z,102152.00
2022-09-07T18:55:14.507Z,102147.60
2022-09-07T18:57:42.741Z,102145.40
2022-09-07T19:00:13.328Z,102148.60
2022-09-07T19:02:41.506Z,102151.80
2022-09-07T19:07:59.765Z,102154.00
2022-09-07T19:10:27.756Z,102154.80
2022-09-07T19:12:56.271Z,102155.20
2022-09-07T19:15:24.186Z,102160.20
2022-09-07T19:17:52.063Z,102151.40
2022-09-07T19:20:20.249Z,102151.40
2022-09-07T19:22:48.332Z,102155.60
2022-09-07T19:25:17.404Z,102152.20
2022-09-07T19:27:45.813Z,102157.80
2022-09-07T19:30:15.273Z,102157.60
2022-09-07T19:32:43.640Z,102162.20
2022-09-07T19:35:11.374Z,102164.00
2022-09-07T19:37:39.381Z,102164.80
2022-09-07T19:40:14.766Z,102166.20
2022-09-07T19:42:46.565Z,102170.80
2022-09-07T19:45:15.298Z,102171.60
2022-09-07T19:47:43.104Z,102174.60
2022-09-07T19:50:11.622Z,102174.00
2022-09-07T19:52:39.286Z,102178.60
2022-09-07T19:55:08.225Z,102182.20
2022-09-07T19:57:35.968Z,102182.20
2022-09-07T20:00:05.474Z,102177.60
2022-09-07T20:02:33.464Z,102176.20
2022-09-07T20:05:01.157Z,102176.00
2022-09-07T20:07:28.810Z,102178.60
2022-09-07T20:09:57.068Z,102179.40
2022-09-07T20:12:24.871Z,102176.40
2022-09-07T20:14:52.484Z,102181.20
2022-09-07T20:17:20.213Z,102183.20
2022-09-07T20:19:47.924Z,102179.40
2022-09-07T20:22:15.603Z,102175.60
2022-09-07T20:24:43.858Z,102176.40
2022-09-07T20:27:11.521Z,102182.60
2022-09-07T20:29:39.436Z,102178.60
2022-09-07T20:32:07.138Z,102179.80
2022-09-07T20:34:35.043Z,102176.60
2022-09-07T20:37:02.702Z,102185.40
2022-09-07T20:39:30.485Z,102184.80
2022-09-07T20:41:59.135Z,102185.80
2022-09-07T20:44:27.316Z,102184.80
2022-09-07T20:46:55.241Z,102189.00
2022-09-07T20:49:23.025Z,102188.00
2022-09-07T20:51:50.817Z,102189.80
2022-09-07T20:54:18.869Z,102189.00
2022-09-07T20:56:46.804Z,102193.20
2022-09-07T20:59:15.334Z,102193.40
2022-09-07T21:01:43.165Z,102193.20
2022-09-07T21:04:11.089Z,102193.80
2022-09-07T21:06:38.815Z,102194.20
2022-09-07T21:09:06.502Z,102190.40
2022-09-07T21:11:36.893Z,102192.80
2022-09-07T21:14:12.560Z,102192.00
2022-09-07T21:16:40.965Z,102192.20
2022-09-07T21:19:12.882Z,102195.40
2022-09-07T21:21:42.861Z,102196.20
2022-09-07T21:24:21.276Z,102193.80
2022-09-07T21:26:50.835Z,102199.40
2022-09-07T21:29:24.408Z,102199.80
2022-09-07T21:31:55.834Z,102206.40
2022-09-07T21:34:24.004Z,102205.80
2022-09-07T21:36:52.905Z,102210.00
2022-09-07T21:39:21.612Z,102211.60
2022-09-07T21:41:49.304Z,102215.20
2022-09-07T21:44:17.403Z,102216.80
2022-09-07T21:46:45.650Z,102220.20
2022-09-07T21:49:13.759Z,102220.60
2022-09-07T21:51:41.482Z,102221.00
2022-09-07T21:54:09.603Z,102220.80
2022-09-07T21:56:37.266Z,102229.40
2022-09-07T21:59:05.201Z,102227.80
2022-09-07T22:01:33.116Z,102232.00
2022-09-07T22:04:05.202Z,102233.80
2022-09-07T22:06:34.542Z,102233.60
2022-09-07T22:09:05.130Z,102236.00
2022-09-07T22:11:33.261Z,102236.80
2022-09-07T22:14:04.884Z,102235.40
2022-09-07T22:16:34.590Z,102234.80
2022-09-07T22:19:02.863Z,102237.40
2022-09-07T22:21:31.698Z,102235.60
2022-09-07T22:24:03.947Z,102236.60
2022-09-07T22:26:39.951Z,102240.00
2022-09-07T22:29:11.081Z,102240.00
2022-09-07T22:31:41.181Z,102243.80
2022-09-07T22:34:10.442Z,102243.60
2022-09-07T22:36:44.629Z,102245.80
2022-09-07T22:39:16.856Z,102248.00
2022-09-07T22:41:47.576Z,102249.60
2022-09-07T22:44:18.236Z,102247.60
2022-09-07T22:46:47.567Z,102251.80
2022-09-07T22:49:17.182Z,102251.80
2022-09-07T22:51:47.382Z,102249.60
2022-09-07T22:54:15.106Z,102250.80
2022-09-07T22:56:43.222Z,102250.40
2022-09-07T22:59:13.317Z,102251.20
2022-09-07T23:01:41.918Z,102254.60
2022-09-07T23:04:11.177Z,102250.60
2022-09-07T23:06:42.665Z,102253.60
2022-09-07T23:09:17.607Z,102247.80
2022-09-07T23:11:48.137Z,102251.60
2022-09-07T23:14:24.629Z,102252.00
2022-09-07T23:16:52.655Z,102252.60
2022-09-07T23:19:20.991Z,102258.80
2022-09-07T23:21:49.209Z,102253.40
2022-09-07T23:24:19.120Z,102253.20
2022-09-07T23:26:47.702Z,102253.40
2022-09-07T23:29:16.564Z,102252.80
2022-09-07T23:31:46.499Z,102252.60
2022-09-07T23:34:14.459Z,102258.20
2022-09-07T23:36:42.197Z,102254.20
2022-09-07T23:39:10.297Z,102254.40
2022-09-07T23:41:39.198Z,102253.80
2022-09-07T23:44:07.010Z,102260.40
2022-09-07T23:46:34.688Z,102254.80
2022-09-07T23:49:02.430Z,102260.40
2022-09-07T23:51:30.094Z,102256.60
2022-09-07T23:53:57.791Z,102259.40
2022-09-07T23:56:26.042Z,102257.00
2022-09-07T23:58:53.706Z,102257.80
